Time;durP1;ratioP1;P1;durP2;ratioP2;P2;SDS_P1;SDS_P2;PMS_P1;PMS_P2;Temp;Humidity;BMP_temperature;BMP_pressure;BME280_temperature;BME280_humidity;BME280_pressure;Samples;Min_cycle;Max_cycle;Signal;HPM_P1;HPM_P2
2024/04/12 00:01:11;;;;;;;4.83;3.13;;;;;;;10.91;65.42;154162.34;5482477;26;20528;-92
2024/04/12 00:03:36;;;;;;;2.93;2.53;;;;;;;10.88;65.61;154154.56;5483497;26;21008;-92
2024/04/12 00:06:15;;;;;;;3.87;2.63;;;;;;;10.89;65.74;154155.88;5499301;26;20466;-92
2024/04/12 00:08:42;;;;;;;3.90;3.10;;;;;;;10.89;65.60;154157.19;5508339;26;20275;-92
2024/04/12 00:11:10;;;;;;;6.00;2.67;;;;;;;10.91;65.29;154161.06;5492209;26;20513;-93
2024/04/12 00:13:41;;;;;;;3.60;3.07;;;;;;;10.92;65.39;154164.97;5498507;26;20533;-93
2024/04/12 00:16:10;;;;;;;4.47;3.27;;;;;;;10.86;65.18;154148.09;5493935;25;20449;-93
2024/04/12 00:18:36;;;;;;;5.00;2.67;;;;;;;10.80;65.73;154133.84;5526276;25;20604;-92
2024/04/12 00:21:07;;;;;;;6.13;3.07;;;;;;;10.74;65.87;154118.34;5480880;26;20496;-93
2024/04/12 00:23:33;;;;;;;3.83;2.73;;;;;;;10.69;66.28;154105.41;5491001;26;20511;-92
2024/04/12 00:26:02;;;;;;;4.30;2.67;;;;;;;10.67;67.09;154098.94;5499457;26;21038;-93
2024/04/12 00:28:29;;;;;;;7.50;3.87;;;;;;;10.63;66.94;154088.56;5516497;25;20587;-93
2024/04/12 00:30:59;;;;;;;5.90;3.80;;;;;;;10.63;67.77;154088.56;5456103;26;20470;-92
2024/04/12 00:33:31;;;;;;;5.90;3.93;;;;;;;10.61;67.31;154084.69;5517996;26;20914;-92
2024/04/12 00:36:07;;;;;;;5.53;3.60;;;;;;;10.59;67.36;154079.47;5506347;26;20560;-93
2024/04/12 00:38:35;;;;;;;6.37;4.30;;;;;;;10.55;67.92;154067.84;5512355;26;20478;-92
2024/04/12 00:41:11;;;;;;;5.20;4.47;;;;;;;10.54;67.64;154066.53;5487481;26;20462;-94
2024/04/12 00:43:45;;;;;;;4.97;3.83;;;;;;;10.54;67.79;154065.28;5521121;26;21305;-93
2024/04/12 00:46:18;;;;;;;7.57;4.53;;;;;;;10.55;68.11;154067.84;5523197;25;20546;-92
2024/04/12 00:48:44;;;;;;;6.00;3.80;;;;;;;10.54;68.42;154066.53;5503608;26;20508;-93
2024/04/12 00:51:15;;;;;;;6.80;4.80;;;;;;;10.55;68.76;154069.13;5498972;26;20548;-93
2024/04/12 00:53:45;;;;;;;5.00;4.50;;;;;;;10.56;68.41;154071.75;5489407;26;20466;-93
2024/04/12 00:56:15;;;;;;;6.50;4.57;;;;;;;10.54;68.08;154065.28;5495958;26;20936;-93
2024/04/12 00:58:42;;;;;;;4.73;4.23;;;;;;;10.51;67.99;154058.75;5513532;26;20517;-93
2024/04/12 01:01:15;;;;;;;4.30;3.90;;;;;;;10.48;68.41;154051.03;5491118;26;20498;-93
2024/04/12 01:03:45;;;;;;;7.23;4.30;;;;;;;10.39;67.98;154029.00;5486333;26;20469;-93
2024/04/12 01:06:17;;;;;;;5.70;3.80;;;;;;;10.36;68.79;154019.94;5498079;26;20551;-93
2024/04/12 01:08:45;;;;;;;8.77;4.40;;;;;;;10.33;68.71;154012.16;5517775;26;20470;-93
2024/04/12 01:11:14;;;;;;;7.60;4.70;;;;;;;10.29;68.84;154001.81;5486708;26;20462;-93
2024/04/12 01:13:40;;;;;;;6.47;4.43;;;;;;;10.27;69.10;153997.91;5514936;26;20818;-93
2024/04/12 01:16:10;;;;;;;4.57;4.17;;;;;;;10.21;68.37;153982.41;5512216;26;20665;-93
2024/04/12 01:18:36;;;;;;;6.93;4.40;;;;;;;10.22;69.22;153983.66;5516183;25;20820;-93
2024/04/12 01:21:10;;;;;;;5.87;4.13;;;;;;;10.25;68.84;153991.44;5518126;26;20840;-93
2024/04/12 01:23:37;;;;;;;6.77;3.80;;;;;;;10.19;68.86;153975.94;5523853;26;20243;-93
2024/04/12 01:26:09;;;;;;;6.90;4.67;;;;;;;10.18;69.37;153973.34;5526433;25;21005;-93
2024/04/12 01:28:35;;;;;;;6.93;4.13;;;;;;;10.14;69.48;153964.25;5537156;25;20477;-93
2024/04/12 01:31:05;;;;;;;5.80;5.10;;;;;;;10.15;69.07;153965.56;5488606;26;20446;-93
2024/04/12 01:33:31;;;;;;;5.90;4.97;;;;;;;10.15;69.25;153965.56;5490919;26;20516;-93
2024/04/12 01:36:05;;;;;;;4.87;4.20;;;;;;;10.13;69.24;153961.69;5516718;26;20470;-94
2024/04/12 01:38:36;;;;;;;5.30;4.60;;;;;;;10.10;68.96;153952.56;5489179;26;20474;-94
2024/04/12 01:41:08;;;;;;;5.53;4.00;;;;;;;10.04;69.54;153938.34;5488047;26;20450;-92
2024/04/12 01:43:36;;;;;;;5.30;4.60;;;;;;;10.01;69.55;153929.25;5490456;26;20506;-93
2024/04/12 01:46:04;;;;;;;8.20;5.07;;;;;;;10.00;70.04;153926.69;5511702;26;20466;-93
2024/04/12 01:48:33;;;;;;;6.10;4.83;;;;;;;10.00;70.17;153928.00;5488490;26;20529;-93
2024/04/12 01:51:03;;;;;;;5.97;4.60;;;;;;;10.00;70.30;153928.00;5488726;26;20563;-93
2024/04/12 01:53:28;;;;;;;7.83;5.40;;;;;;;10.00;70.13;153926.69;5487030;26;20564;-93
2024/04/12 01:55:58;;;;;;;6.67;4.30;;;;;;;10.01;70.03;153930.56;5517315;25;20878;-93
2024/04/12 01:58:26;;;;;;;9.43;5.07;;;;;;;9.98;70.00;153922.78;5488258;26;20277;-92
2024/04/12 02:00:55;;;;;;;6.00;5.10;;;;;;;9.95;69.94;153913.75;5492575;26;20447;-93
2024/04/12 02:03:21;;;;;;;4.93;4.40;;;;;;;9.92;70.17;153906.00;5517643;26;20481;-93
2024/04/12 02:05:49;;;;;;;6.00;5.40;;;;;;;9.93;70.52;153908.59;5515371;26;20469;-94
2024/04/12 02:08:16;;;;;;;6.50;4.57;;;;;;;9.92;69.81;153907.28;5494160;25;20550;-93
2024/04/12 02:10:48;;;;;;;6.80;3.97;;;;;;;9.85;70.23;153887.88;5486403;26;20510;-93
2024/04/12 02:13:17;;;;;;;5.33;4.20;;;;;;;9.73;70.62;153859.41;5507375;26;20517;-93
2024/04/12 02:15:48;;;;;;;5.20;4.20;;;;;;;9.65;70.41;153837.41;5509646;26;20793;-94
2024/04/12 02:18:14;;;;;;;5.60;4.13;;;;;;;9.55;70.75;153812.84;5459639;26;20525;-93
2024/04/12 02:20:45;;;;;;;7.70;3.83;;;;;;;9.48;71.26;153793.41;5489883;25;20580;-93
2024/04/12 02:23:13;;;;;;;5.27;4.77;;;;;;;9.44;71.94;153784.38;5488069;26;20274;-93
2024/04/12 02:25:42;;;;;;;6.40;4.10;;;;;;;9.40;71.50;153774.00;5455820;26;20509;-93
2024/04/12 02:28:11;;;;;;;7.27;4.50;;;;;;;9.35;71.90;153759.75;5491732;26;20445;-93
2024/04/12 02:30:42;;;;;;;9.33;5.10;;;;;;;9.31;72.51;153750.75;5485650;26;20477;-93
2024/04/12 02:33:12;;;;;;;5.17;4.30;;;;;;;9.25;72.74;153735.22;5455449;26;20450;-94
2024/04/12 02:35:41;;;;;;;6.70;4.83;;;;;;;9.22;72.27;153726.13;5456356;26;20560;-92
2024/04/12 02:38:08;;;;;;;7.60;5.00;;;;;;;9.18;72.98;153717.13;5489743;26;20448;-92
2024/04/12 02:40:38;;;;;;;7.63;4.73;;;;;;;9.15;73.00;153709.34;5465363;26;20465;-93
2024/04/12 02:43:04;;;;;;;5.80;4.80;;;;;;;9.10;73.13;153697.72;5486087;26;20516;-92
2024/04/12 02:45:33;;;;;;;5.87;4.40;;;;;;;9.09;73.96;153693.81;5479042;26;21022;-92
2024/04/12 02:47:59;;;;;;;6.23;4.83;;;;;;;9.13;73.60;153704.19;5465775;26;20271;-92
2024/04/12 02:50:30;;;;;;;7.40;4.43;;;;;;;9.14;73.99;153706.75;5522963;26;20531;-92
2024/04/12 02:52:56;;;;;;;6.73;5.17;;;;;;;9.19;73.89;153719.69;5492691;26;20461;-91
2024/04/12 02:55:30;;;;;;;8.97;5.70;;;;;;;9.26;73.84;153737.81;5523288;26;20457;-92
2024/04/12 02:57:56;;;;;;;9.07;5.43;;;;;;;9.30;73.62;153748.13;5486918;26;20568;-94
2024/04/12 03:00:26;;;;;;;6.00;4.83;;;;;;;9.33;73.51;153755.91;5455788;26;20539;-92
2024/04/12 03:02:52;;;;;;;7.83;5.03;;;;;;;9.35;73.60;153761.06;5482520;26;20503;-92
2024/04/12 03:05:22;;;;;;;7.20;5.20;;;;;;;9.37;73.33;153764.97;5455412;26;21015;-92
2024/04/12 03:07:52;;;;;;;6.83;5.07;;;;;;;9.36;73.04;153762.38;5459957;26;21119;-92
2024/04/12 03:10:24;;;;;;;7.57;5.73;;;;;;;9.37;73.88;153764.97;5454913;26;20588;-92
2024/04/12 03:12:51;;;;;;;5.63;4.40;;;;;;;9.35;73.20;153759.75;5458987;26;20522;-94
2024/04/12 03:15:20;;;;;;;8.20;5.63;;;;;;;9.31;73.95;153750.75;5455214;26;20960;-93
2024/04/12 03:17:46;;;;;;;7.00;4.77;;;;;;;9.30;74.22;153746.84;5455989;26;20446;-93
2024/04/12 03:20:16;;;;;;;6.50;5.00;;;;;;;9.26;74.28;153737.81;5455370;26;20458;-93
2024/04/12 03:22:42;;;;;;;6.20;4.90;;;;;;;9.23;74.32;153728.75;5455304;26;20944;-93
2024/04/12 03:25:14;;;;;;;6.67;4.90;;;;;;;9.23;74.54;153730.03;5454946;26;20470;-93
2024/04/12 03:27:39;;;;;;;6.07;5.10;;;;;;;9.20;74.73;153722.28;5474216;26;20269;-92
2024/04/12 03:30:13;;;;;;;7.20;4.90;;;;;;;9.18;75.02;153717.13;5486689;26;20795;-93
2024/04/12 03:32:44;;;;;;;6.57;4.83;;;;;;;9.14;75.06;153708.03;5484913;26;20380;-94
2024/04/12 03:35:16;;;;;;;5.90;5.00;;;;;;;9.12;75.73;153701.59;5454749;26;20503;-92
2024/04/12 03:37:47;;;;;;;6.53;5.00;;;;;;;9.10;75.66;153696.41;5479082;26;20469;-93
2024/04/12 03:40:19;;;;;;;6.53;5.23;;;;;;;9.08;75.78;153691.25;5462315;26;20584;-93
2024/04/12 03:42:45;;;;;;;5.90;4.60;;;;;;;9.02;76.42;153677.03;5461459;26;20454;-93
2024/04/12 03:45:15;;;;;;;6.40;5.33;;;;;;;8.99;76.08;153669.25;5483869;26;20466;-93
2024/04/12 03:47:41;;;;;;;5.80;4.57;;;;;;;8.94;76.76;153655.03;5485694;26;20229;-93
2024/04/12 03:50:13;;;;;;;7.37;5.20;;;;;;;8.89;76.60;153642.13;5464472;26;20538;-91
2024/04/12 03:52:41;;;;;;;6.40;5.20;;;;;;;8.83;76.48;153626.59;5467235;26;20236;-92
2024/04/12 03:55:11;;;;;;;6.80;5.50;;;;;;;8.78;77.05;153614.97;5490777;26;20457;-91
2024/04/12 03:57:40;;;;;;;7.40;4.97;;;;;;;8.75;77.37;153605.91;5478750;26;20492;-92
2024/04/12 04:00:13;;;;;;;6.40;4.90;;;;;;;8.72;77.28;153599.44;5486731;26;20457;-93
2024/04/12 04:02:47;;;;;;;6.00;5.40;;;;;;;8.66;77.41;153582.66;5454835;26;21079;-92
2024/04/12 04:05:14;;;;;;;5.93;5.10;;;;;;;8.61;77.78;153570.97;5456770;26;20604;-92
2024/04/12 04:07:44;;;;;;;10.63;5.00;;;;;;;8.53;78.34;153551.59;5491143;26;20457;-92
2024/04/12 04:10:13;;;;;;;7.40;5.57;;;;;;;8.51;78.22;153546.44;5484937;26;21036;-92
2024/04/12 04:12:49;;;;;;;5.80;4.90;;;;;;;8.47;79.23;153536.06;5454781;26;20778;-92
2024/04/12 04:15:15;;;;;;;6.03;5.00;;;;;;;8.44;79.12;153528.34;5454496;26;20887;-92
2024/04/12 04:17:47;;;;;;;7.03;4.77;;;;;;;8.46;78.57;153533.53;5475394;26;20896;-92
2024/04/12 04:20:14;;;;;;;5.60;4.97;;;;;;;8.46;78.60;153532.22;5454816;26;20526;-93
2024/04/12 04:22:42;;;;;;;7.20;5.80;;;;;;;8.43;78.54;153525.75;5460716;26;20559;-92
2024/04/12 04:25:08;;;;;;;6.10;4.60;;;;;;;8.39;78.59;153514.13;5487764;26;20950;-92
2024/04/12 04:27:37;;;;;;;5.63;4.80;;;;;;;8.38;78.71;153512.84;5472021;26;20482;-92
2024/04/12 04:30:06;;;;;;;6.03;5.43;;;;;;;8.35;78.97;153503.78;5454420;26;20454;-92
2024/04/12 04:32:35;;;;;;;9.53;4.93;;;;;;;8.31;78.77;153493.47;5454452;26;20501;-94
2024/04/12 04:35:08;;;;;;;6.00;4.83;;;;;;;8.26;79.25;153481.75;5478297;26;20474;-93
2024/04/12 04:37:38;;;;;;;5.77;4.87;;;;;;;8.24;79.19;153476.59;5455438;26;20512;-92
2024/04/12 04:40:09;;;;;;;6.17;5.10;;;;;;;8.26;80.06;153480.50;5455857;26;20514;-92
2024/04/12 04:42:38;;;;;;;6.07;5.00;;;;;;;8.31;79.55;153494.72;5456122;26;20466;-92
2024/04/12 04:45:07;;;;;;;7.53;4.80;;;;;;;8.34;79.85;153502.47;5454776;26;20454;-92
2024/04/12 04:47:38;;;;;;;7.37;4.40;;;;;;;8.38;79.76;153512.84;5457466;26;20469;-90
2024/04/12 04:50:05;;;;;;;6.17;5.10;;;;;;;8.41;79.49;153520.59;5462091;26;20458;-91
2024/04/12 04:52:38;;;;;;;5.73;4.60;;;;;;;8.45;79.10;153529.63;5491790;26;20767;-91
2024/04/12 04:55:06;;;;;;;7.73;4.90;;;;;;;8.52;78.79;153547.75;5488638;26;20454;-92
2024/04/12 04:57:43;;;;;;;6.17;4.97;;;;;;;8.57;78.33;153561.97;5459427;26;20501;-92
2024/04/12 05:00:18;;;;;;;7.77;5.07;;;;;;;8.61;78.38;153570.97;5491435;26;20476;-92
2024/04/12 05:02:49;;;;;;;4.87;4.40;;;;;;;8.68;78.36;153587.81;5487424;26;20438;-92
2024/04/12 05:05:22;;;;;;;7.83;5.10;;;;;;;8.71;78.23;153595.56;5458565;26;20496;-94
2024/04/12 05:07:52;;;;;;;6.70;4.90;;;;;;;8.76;78.14;153609.81;5488683;26;20454;-94
2024/04/12 05:10:20;;;;;;;9.03;4.80;;;;;;;8.81;77.90;153621.41;5488503;26;20442;-94
2024/04/12 05:12:50;;;;;;;6.33;4.93;;;;;;;8.86;78.00;153635.66;5457778;26;20449;-94
2024/04/12 05:18:12;;;;;;;5.00;4.43;;;;;;;9.02;78.21;153675.72;5439704;26;20541;-94
2024/04/12 05:20:39;;;;;;;5.13;4.63;;;;;;;9.01;78.10;153673.13;5458298;26;20493;-95
2024/04/12 05:23:08;;;;;;;6.20;5.60;;;;;;;9.01;77.92;153673.13;5458470;26;20442;-95
2024/04/12 05:25:34;;;;;;;7.47;5.60;;;;;;;9.00;77.78;153670.56;5458822;26;20611;-94
2024/04/12 05:28:06;;;;;;;6.20;5.50;;;;;;;9.00;77.84;153670.56;5458651;26;21038;-94
2024/04/12 05:30:36;;;;;;;7.80;5.43;;;;;;;8.99;78.12;153667.97;5458671;26;20493;-94
2024/04/12 05:33:06;;;;;;;6.67;5.50;;;;;;;9.01;78.34;153673.13;5458233;26;20446;-95
2024/04/12 05:35:34;;;;;;;7.23;5.50;;;;;;;9.07;78.26;153688.66;5488108;26;20836;-95
2024/04/12 05:38:07;;;;;;;9.63;6.00;;;;;;;9.06;78.53;153686.06;5459625;26;20614;-93
2024/04/12 05:40:34;;;;;;;6.43;5.73;;;;;;;9.12;79.18;153702.88;5477126;26;20530;-93
2024/04/12 05:43:02;;;;;;;7.20;6.50;;;;;;;9.15;79.01;153710.66;5496213;26;20474;-93
2024/04/12 05:45:28;;;;;;;6.53;5.00;;;;;;;9.25;79.34;153733.91;5469773;26;20530;-93
2024/04/12 05:47:59;;;;;;;7.60;5.40;;;;;;;9.39;78.86;153771.44;5487827;26;21090;-92
2024/04/12 05:50:25;;;;;;;7.40;5.63;;;;;;;9.59;78.90;153823.16;5519357;26;20256;-91
2024/04/12 05:52:54;;;;;;;6.70;5.27;;;;;;;9.82;78.41;153882.69;5475341;26;20991;-92
2024/04/12 05:55:24;;;;;;;8.50;6.23;;;;;;;10.07;77.16;153944.81;5493891;26;20441;-92
2024/04/12 05:57:50;;;;;;;11.20;5.60;;;;;;;10.33;76.53;154012.16;5492664;26;20524;-92
2024/04/12 06:00:23;;;;;;;6.70;5.30;;;;;;;10.61;75.85;154083.38;5501715;26;20474;-91
2024/04/12 06:02:49;;;;;;;5.93;5.33;;;;;;;10.90;74.91;154158.50;5503714;26;20474;-92
2024/04/12 06:05:22;;;;;;;7.17;5.40;;;;;;;11.18;74.01;154229.72;5480123;26;20819;-92
2024/04/12 06:07:48;;;;;;;6.77;6.00;;;;;;;11.42;72.63;154291.91;5479367;26;20481;-92
2024/04/12 06:10:17;;;;;;;8.07;6.27;;;;;;;11.61;71.79;154341.16;5472779;26;20486;-90
2024/04/12 06:12:45;;;;;;;6.10;5.50;;;;;;;11.84;70.79;154399.50;5474430;26;20632;-90
2024/04/12 06:15:15;;;;;;;6.53;5.83;;;;;;;11.95;69.66;154429.31;5499357;26;21026;-90
2024/04/12 06:17:43;;;;;;;6.03;5.47;;;;;;;11.98;68.92;154437.09;5461371;26;20477;-90
2024/04/12 06:20:11;;;;;;;6.47;5.10;;;;;;;12.05;69.00;154455.25;5465616;26;20937;-90
2024/04/12 06:22:39;;;;;;;6.83;5.40;;;;;;;12.25;68.39;154505.81;5476042;26;20468;-92
2024/04/12 06:25:08;;;;;;;8.03;5.57;;;;;;;12.49;68.13;154566.75;5481005;26;21118;-92
2024/04/12 06:27:34;;;;;;;7.73;6.37;;;;;;;12.68;66.75;154617.31;5471355;26;20476;-92
2024/04/12 06:30:05;;;;;;;10.40;5.90;;;;;;;12.85;65.85;154660.13;5476220;26;20472;-91
2024/04/12 06:32:31;;;;;;;7.13;5.97;;;;;;;13.09;65.15;154722.44;5497783;26;20465;-91
2024/04/12 06:35:03;;;;;;;8.83;6.20;;;;;;;13.30;64.67;154775.63;5493282;26;20466;-91
2024/04/12 06:37:31;;;;;;;6.80;5.30;;;;;;;13.60;63.97;154852.22;5496007;25;20864;-90
2024/04/12 06:40:03;;;;;;;8.23;5.47;;;;;;;13.92;63.28;154935.28;5502127;25;20805;-89
2024/04/12 06:42:29;;;;;;;7.13;5.50;;;;;;;14.16;61.68;154997.59;5502392;26;20806;-89
2024/04/12 06:45:01;;;;;;;6.10;5.10;;;;;;;14.37;61.47;155052.19;5490166;26;20507;-89
2024/04/12 06:47:27;;;;;;;8.60;4.53;;;;;;;14.64;60.48;155121.00;5507716;26;20824;-89
2024/04/12 06:50:08;;;;;;;7.13;5.23;;;;;;;14.88;59.98;155183.34;5496384;26;20488;-88
2024/04/12 06:52:34;;;;;;;5.27;4.50;;;;;;;15.15;58.69;155252.22;5494682;26;20945;-87
2024/04/12 06:55:07;;;;;;;5.63;4.70;;;;;;;15.32;58.46;155296.41;5497418;25;20481;-87
2024/04/12 06:57:33;;;;;;;5.87;4.47;;;;;;;15.52;57.25;155348.44;5498236;26;20521;-87
2024/04/12 07:00:07;;;;;;;5.03;4.53;;;;;;;15.66;56.34;155383.53;5493770;26;20466;-88
2024/04/12 07:02:32;;;;;;;7.43;4.50;;;;;;;15.79;56.33;155417.34;5495731;26;20484;-88
2024/04/12 07:05:05;;;;;;;6.60;5.10;;;;;;;15.99;56.74;155468.06;5463653;26;20867;-88
2024/04/12 07:07:32;;;;;;;7.27;5.40;;;;;;;16.17;55.85;155516.16;5509161;26;20252;-88
2024/04/12 07:10:09;;;;;;;5.90;4.50;;;;;;;16.33;55.22;155556.47;5498109;25;20522;-88
2024/04/12 07:12:38;;;;;;;5.50;5.00;;;;;;;16.49;54.72;155598.09;5495180;26;20516;-88
2024/04/12 07:15:09;;;;;;;7.70;4.20;;;;;;;16.63;54.52;155634.53;5494388;26;21180;-88
2024/04/12 07:17:39;;;;;;;6.00;4.47;;;;;;;16.81;53.83;155681.38;5495471;26;20815;-87
2024/04/12 07:20:13;;;;;;;10.40;4.20;;;;;;;16.90;53.89;155704.81;5509328;26;20486;-88
2024/04/12 07:22:39;;;;;;;5.90;4.90;;;;;;;17.02;53.38;155736.00;5492191;26;20513;-87
2024/04/12 07:25:09;;;;;;;10.07;4.73;;;;;;;17.25;52.37;155793.28;5490701;26;21177;-88
2024/04/12 07:27:41;;;;;;;5.33;4.83;;;;;;;17.46;52.59;155847.94;5494294;26;20481;-88
2024/04/12 07:30:10;;;;;;;6.20;5.10;;;;;;;17.68;51.70;155903.97;5510426;26;20473;-89
2024/04/12 07:32:36;;;;;;;8.80;5.57;;;;;;;17.84;51.05;155946.97;5489647;26;20515;-87
2024/04/12 07:35:24;;;;;;;6.20;4.90;;;;;;;17.96;51.58;155978.19;5505197;26;20472;-89
2024/04/12 07:37:54;;;;;;;5.30;4.80;;;;;;;18.18;51.00;156035.50;5495847;26;20278;-88
2024/04/12 07:40:24;;;;;;;7.27;5.70;;;;;;;18.30;50.79;156064.13;5498638;26;20461;-88
2024/04/12 07:42:52;;;;;;;6.07;5.00;;;;;;;18.38;50.02;156084.97;5495911;26;21094;-87
2024/04/12 07:45:23;;;;;;;6.07;4.60;;;;;;;18.54;49.91;156128.00;5502780;26;20511;-87
2024/04/12 07:47:52;;;;;;;7.80;5.00;;;;;;;18.65;49.51;156155.38;5492740;26;20518;-88
2024/04/12 07:50:28;;;;;;;7.83;6.30;;;;;;;18.84;49.36;156204.88;5501902;26;20888;-88
2024/04/12 07:52:55;;;;;;;7.20;6.20;;;;;;;18.83;49.12;156202.25;5492278;25;20468;-88
2024/04/12 07:55:26;;;;;;;6.93;5.40;;;;;;;18.94;49.11;156230.94;5491965;26;20505;-88
2024/04/12 07:57:54;;;;;;;6.13;5.20;;;;;;;18.99;47.96;156243.97;5488152;26;20474;-88
2024/04/12 08:00:35;;;;;;;6.50;5.23;;;;;;;19.10;48.42;156272.63;5496503;25;20901;-87
2024/04/12 08:03:06;;;;;;;6.83;5.57;;;;;;;19.21;48.83;156301.31;5492894;25;20782;-87
2024/04/12 08:05:42;;;;;;;6.50;5.73;;;;;;;19.33;48.18;156331.25;5492974;26;20470;-86
2024/04/12 08:08:15;;;;;;;6.50;5.80;;;;;;;19.48;47.65;156369.13;5488592;26;20522;-88
2024/04/12 08:10:43;;;;;;;9.67;6.57;;;;;;;19.50;48.23;156375.66;5475985;26;20462;-87
2024/04/12 08:13:23;;;;;;;6.90;6.23;;;;;;;19.63;48.22;156408.22;5493868;26;20814;-87
2024/04/12 08:15:52;;;;;;;7.20;6.40;;;;;;;19.75;47.44;156439.56;5510305;26;20860;-86
2024/04/12 08:18:20;;;;;;;11.60;6.70;;;;;;;19.80;46.47;156452.59;5494327;25;20525;-86
2024/04/12 08:20:48;;;;;;;6.80;5.93;;;;;;;19.86;45.72;156468.19;5519515;25;20487;-86
2024/04/12 08:23:17;;;;;;;11.43;6.10;;;;;;;19.66;46.14;156416.06;5489823;26;20474;-86
2024/04/12 08:25:48;;;;;;;8.00;6.00;;;;;;;19.69;47.38;156425.19;5490570;26;21002;-86
2024/04/12 08:28:16;;;;;;;8.93;6.80;;;;;;;19.64;47.44;156412.16;5490814;26;20476;-86
2024/04/12 08:30:51;;;;;;;6.53;5.93;;;;;;;19.37;48.57;156341.72;5491109;26;20948;-86
2024/04/12 08:33:23;;;;;;;7.23;6.53;;;;;;;19.31;47.95;156327.38;5495110;26;20575;-85
2024/04/12 08:35:55;;;;;;;9.03;5.93;;;;;;;19.39;49.10;156348.28;5494897;26;20543;-86
2024/04/12 08:38:21;;;;;;;6.73;6.07;;;;;;;19.60;49.16;156400.41;5494317;26;20474;-86
2024/04/12 08:40:52;;;;;;;5.60;5.10;;;;;;;19.79;49.57;156449.94;5488246;26;20595;-85
2024/04/12 08:43:37;;;;;;;6.10;5.50;;;;;;;19.83;47.93;156460.41;5509171;26;20995;-85
2024/04/12 08:46:14;;;;;;;8.60;6.20;;;;;;;19.92;49.08;156485.16;5494368;26;20559;-85
2024/04/12 08:48:41;;;;;;;6.53;5.90;;;;;;;19.91;48.67;156481.22;5496653;26;20814;-84
2024/04/12 08:51:09;;;;;;;8.80;6.57;;;;;;;19.96;48.02;156494.31;5490907;26;20803;-85
2024/04/12 08:53:44;;;;;;;7.53;6.57;;;;;;;19.97;47.70;156496.88;5486610;26;20477;-85
2024/04/12 08:56:17;;;;;;;6.83;5.97;;;;;;;19.97;47.18;156496.88;5488119;26;20894;-85
2024/04/12 08:58:52;;;;;;;6.73;5.97;;;;;;;19.97;47.27;156496.88;5495764;26;20473;-85
2024/04/12 09:01:21;;;;;;;7.50;5.60;;;;;;;20.10;48.82;156530.78;5497913;25;21002;-86
2024/04/12 09:03:51;;;;;;;7.97;5.80;;;;;;;20.15;47.68;156543.81;5496249;26;20582;-86
2024/04/12 09:06:23;;;;;;;9.73;6.60;;;;;;;20.15;46.73;156543.81;5496413;26;21166;-86
2024/04/12 09:08:55;;;;;;;7.13;6.43;;;;;;;19.75;48.11;156439.56;5496532;25;20488;-85
2024/04/12 09:11:25;;;;;;;7.77;6.00;;;;;;;19.75;47.78;156439.56;5466605;26;20518;-86
2024/04/12 09:13:56;;;;;;;8.23;6.40;;;;;;;19.72;48.32;156431.72;5497475;26;20525;-86
2024/04/12 09:16:23;;;;;;;7.83;5.70;;;;;;;19.78;48.62;156447.31;5492417;26;20795;-86
2024/04/12 09:18:53;;;;;;;7.17;6.03;;;;;;;19.83;48.95;156460.41;5498861;25;20473;-86
2024/04/12 09:21:24;;;;;;;7.70;6.37;;;;;;;19.90;48.63;156478.66;5497242;25;20512;-87
2024/04/12 09:23:52;;;;;;;7.47;5.93;;;;;;;19.99;48.31;156502.09;5498124;26;20933;-87
2024/04/12 09:26:24;;;;;;;8.03;6.23;;;;;;;19.80;47.71;156452.59;5480950;26;20861;-87
2024/04/12 09:29:09;;;;;;;7.27;5.60;;;;;;;19.77;49.01;156446.06;5496816;26;20526;-87
2024/04/12 09:34:29;;;;;;;9.10;6.00;;;;;;;19.77;47.67;156444.75;5499887;25;20526;-87
2024/04/12 09:37:02;;;;;;;6.30;5.57;;;;;;;19.86;47.57;156469.50;5511758;26;20894;-87
2024/04/12 09:39:41;;;;;;;7.33;6.07;;;;;;;20.01;47.49;156507.34;5494622;25;20477;-87
2024/04/12 09:42:12;;;;;;;8.40;5.00;;;;;;;20.03;47.96;156513.88;5478683;26;20474;-87
2024/04/12 09:44:48;;;;;;;6.43;5.77;;;;;;;20.08;47.22;156524.25;5495241;26;20474;-87
2024/04/12 10:37:28;;;;;;;8.50;6.73;;;;;;;19.15;48.65;156284.34;5497217;26;20519;-88
2024/04/12 10:39:57;;;;;;;6.47;5.87;;;;;;;19.16;48.66;156288.28;5496298;26;20553;-87
2024/04/12 10:42:30;;;;;;;7.57;6.10;;;;;;;19.24;48.40;156309.13;5497432;26;20474;-87
2024/04/12 10:45:00;;;;;;;9.33;7.30;;;;;;;19.31;48.34;156327.38;5492186;26;20534;-87
2024/04/12 10:47:29;;;;;;;6.40;5.67;;;;;;;19.36;49.65;156339.09;5495842;26;20466;-88
2024/04/12 10:49:57;;;;;;;9.10;6.37;;;;;;;19.40;48.61;156350.91;5498122;26;20532;-89
2024/04/12 10:52:31;;;;;;;7.40;6.00;;;;;;;19.40;48.25;156349.59;5496374;26;21109;-87
2024/04/12 10:54:57;;;;;;;6.97;6.20;;;;;;;19.58;47.67;156396.50;5497092;25;20485;-87
2024/04/12 10:57:27;;;;;;;8.13;6.70;;;;;;;19.77;47.85;156444.75;5492394;26;20959;-87
2024/04/12 10:59:53;;;;;;;8.30;6.30;;;;;;;19.87;47.42;156472.13;5498757;26;20279;-88
2024/04/12 11:02:22;;;;;;;7.30;6.60;;;;;;;19.93;47.54;156487.78;5493686;26;21095;-88
2024/04/12 11:05:24;;;;;;;7.27;6.10;;;;;;;19.86;46.29;156468.19;5495474;25;21125;-88
2024/04/12 11:07:58;;;;;;;7.70;6.40;;;;;;;19.73;46.63;156434.28;5499707;26;20457;-88
2024/04/12 11:10:24;;;;;;;9.87;6.90;;;;;;;19.70;46.37;156426.47;5497408;26;20448;-88
2024/04/12 11:12:59;;;;;;;9.10;8.20;;;;;;;19.66;46.67;156416.06;5501513;26;21061;-87
2024/04/12 11:32:14;;;;;;;8.80;6.30;;;;;;;19.99;46.49;156503.41;5496195;26;20755;-87
2024/04/12 11:34:44;;;;;;;6.33;5.40;;;;;;;20.05;46.65;156519.06;5499213;26;20528;-87
2024/04/12 11:40:03;;;;;;;7.10;6.40;;;;;;;20.12;44.87;156534.72;5496958;26;20552;-88
2024/04/12 11:42:32;;;;;;;11.40;7.50;;;;;;;20.03;45.52;156512.53;5464737;26;20528;-87
2024/04/12 11:45:01;;;;;;;13.53;5.87;;;;;;;20.10;46.44;156529.47;5496393;26;20477;-87
2024/04/12 11:47:27;;;;;;;6.60;5.87;;;;;;;20.19;45.56;156554.28;5494964;26;20800;-88
2024/04/12 11:49:57;;;;;;;9.13;6.43;;;;;;;20.19;45.56;156554.28;5503060;26;21002;-88
2024/04/12 11:52:25;;;;;;;13.30;6.93;;;;;;;20.18;45.04;156550.34;5493764;26;20995;-88
2024/04/12 11:55:00;;;;;;;9.70;7.23;;;;;;;20.05;45.70;156519.06;5490605;26;20458;-88
2024/04/12 11:57:27;;;;;;;8.33;6.50;;;;;;;19.98;46.15;156499.50;5492732;26;20589;-87
2024/04/12 11:59:58;;;;;;;6.60;5.90;;;;;;;20.06;46.46;156520.38;5511481;26;20480;-88
2024/04/12 12:02:25;;;;;;;7.93;6.80;;;;;;;20.17;45.52;156549.06;5494374;25;20526;-88
2024/04/12 12:04:53;;;;;;;7.30;6.57;;;;;;;20.08;44.97;156525.59;5494212;26;20477;-88
2024/04/12 12:07:19;;;;;;;8.13;6.20;;;;;;;19.95;45.09;156491.69;5495813;25;20473;-88
2024/04/12 12:09:47;;;;;;;10.43;6.40;;;;;;;19.88;46.10;156473.44;5467692;26;20574;-88
2024/04/12 12:12:21;;;;;;;7.60;6.80;;;;;;;19.96;46.37;156494.31;5473901;26;20256;-88
2024/04/12 12:14:52;;;;;;;10.13;7.40;;;;;;;19.86;45.48;156468.19;5500385;26;20948;-88
2024/04/12 12:17:18;;;;;;;7.47;6.53;;;;;;;19.82;47.59;156457.78;5497942;26;20469;-89
2024/04/12 12:19:50;;;;;;;8.70;6.40;;;;;;;19.89;46.62;156477.34;5482648;26;20489;-89
2024/04/12 12:22:15;;;;;;;6.60;5.50;;;;;;;20.01;47.70;156507.34;5530416;25;20520;-88
2024/04/12 12:24:43;;;;;;;7.40;6.37;;;;;;;20.11;46.66;156533.41;5504734;25;20505;-87
2024/04/12 12:27:09;;;;;;;10.87;6.37;;;;;;;20.15;46.91;156543.81;5501983;26;20243;-87
2024/04/12 12:29:42;;;;;;;10.50;6.90;;;;;;;20.18;46.06;156550.34;5493122;26;20524;-87
2024/04/12 12:32:08;;;;;;;8.70;6.87;;;;;;;20.16;45.88;156546.44;5501276;26;20271;-89
2024/04/12 12:34:38;;;;;;;8.77;5.77;;;;;;;20.11;45.65;156533.41;5476265;20;20613;-77
2024/04/12 12:37:04;;;;;;;8.77;5.87;;;;;;;20.12;46.37;156534.72;5426169;26;20525;-76
2024/04/12 12:39:33;;;;;;;7.57;6.80;;;;;;;20.12;46.81;156536.00;5425039;26;20638;-76
2024/04/12 12:42:01;;;;;;;10.70;6.77;;;;;;;20.11;46.44;156532.09;5422092;26;20506;-76
2024/04/12 12:44:29;;;;;;;10.00;6.87;;;;;;;20.13;45.67;156537.31;5423809;26;21108;-76
2024/04/12 12:46:59;;;;;;;7.70;6.80;;;;;;;20.28;46.72;156577.78;5366833;26;21038;-77
2024/04/12 12:49:27;;;;;;;9.27;6.90;;;;;;;20.37;46.20;156601.28;5423247;26;21049;-76
2024/04/12 12:52:00;;;;;;;7.67;6.67;;;;;;;20.32;45.52;156586.94;5423162;26;20588;-76
2024/04/12 12:54:30;;;;;;;7.40;6.43;;;;;;;20.37;46.32;156599.97;5422548;26;20519;-77